sensor_id;sensor_type;location;lat;lon;timestamp;pressure;altitude;pressure_sealevel;temperature;humidity
24440;BME280;12618;54.386;18.394;2022-12-18T00:01:41;101117.57;;;-5.91;100.00
24440;BME280;12618;54.386;18.394;2022-12-18T00:04:15;101112.70;;;-5.94;100.00
24440;BME280;12618;54.386;18.394;2022-12-18T00:06:46;101122.92;;;-5.96;100.00
24440;BME280;12618;54.386;18.394;2022-12-18T00:09:17;101119.06;;;-5.96;100.00
24440;BME280;12618;54.386;18.394;2022-12-18T00:11:48;101117.20;;;-6.00;100.00
24440;BME280;12618;54.386;18.394;2022-12-18T00:14:18;101126.20;;;-6.00;100.00
24440;BME280;12618;54.386;18.394;2022-12-18T00:16:49;101120.59;;;-6.01;100.00
24440;BME280;12618;54.386;18.394;2022-12-18T00:19:19;101124.78;;;-6.03;100.00
24440;BME280;12618;54.386;18.394;2022-12-18T00:21:50;101133.44;;;-6.01;100.00
24440;BME280;12618;54.386;18.394;2022-12-18T00:24:20;101134.38;;;-5.99;100.00
24440;BME280;12618;54.386;18.394;2022-12-18T00:26:51;101130.53;;;-5.99;100.00
24440;BME280;12618;54.386;18.394;2022-12-18T00:29:21;101124.10;;;-5.99;100.00
24440;BME280;12618;54.386;18.394;2022-12-18T00:31:52;101130.19;;;-5.97;100.00
24440;BME280;12618;54.386;18.394;2022-12-18T00:34:22;101132.86;;;-5.94;100.00
24440;BME280;12618;54.386;18.394;2022-12-18T00:36:54;101136.38;;;-5.92;100.00
24440;BME280;12618;54.386;18.394;2022-12-18T00:39:26;101138.23;;;-5.88;100.00
24440;BME280;12618;54.386;18.394;2022-12-18T00:41:57;101142.60;;;-5.85;100.00
24440;BME280;12618;54.386;18.394;2022-12-18T00:44:46;101132.86;;;-5.82;100.00
24440;BME280;12618;54.386;18.394;2022-12-18T00:47:17;101118.62;;;-5.85;100.00
24440;BME280;12618;54.386;18.394;2022-12-18T00:49:48;101139.55;;;-5.76;100.00
24440;BME280;12618;54.386;18.394;2022-12-18T00:52:18;101138.36;;;-5.73;100.00
24440;BME280;12618;54.386;18.394;2022-12-18T00:54:48;101151.69;;;-5.72;100.00
24440;BME280;12618;54.386;18.394;2022-12-18T00:57:19;101146.08;;;-5.73;100.00
24440;BME280;12618;54.386;18.394;2022-12-18T00:59:49;101143.91;;;-5.74;100.00
24440;BME280;12618;54.386;18.394;2022-12-18T01:02:20;101148.55;;;-5.76;100.00
24440;BME280;12618;54.386;18.394;2022-12-18T01:04:50;101140.84;;;-5.76;100.00
24440;BME280;12618;54.386;18.394;2022-12-18T01:07:21;101145.50;;;-5.77;100.00
24440;BME280;12618;54.386;18.394;2022-12-18T01:09:52;101147.12;;;-5.79;100.00
24440;BME280;12618;54.386;18.394;2022-12-18T01:12:22;101151.73;;;-5.82;100.00
24440;BME280;12618;54.386;18.394;2022-12-18T01:14:53;101158.40;;;-5.87;100.00
24440;BME280;12618;54.386;18.394;2022-12-18T01:17:26;101161.95;;;-5.95;100.00
24440;BME280;12618;54.386;18.394;2022-12-18T01:19:56;101169.66;;;-5.95;100.00
24440;BME280;12618;54.386;18.394;2022-12-18T01:22:27;101169.66;;;-5.95;100.00
24440;BME280;12618;54.386;18.394;2022-12-18T01:24:57;101171.89;;;-5.93;100.00
24440;BME280;12618;54.386;18.394;2022-12-18T01:27:28;101160.19;;;-5.96;100.00
24440;BME280;12618;54.386;18.394;2022-12-18T01:29:58;101164.41;;;-5.98;100.00
24440;BME280;12618;54.386;18.394;2022-12-18T01:32:29;101173.41;;;-5.98;100.00
24440;BME280;12618;54.386;18.394;2022-12-18T01:35:00;101178.45;;;-5.90;100.00
24440;BME280;12618;54.386;18.394;2022-12-18T01:37:31;101181.70;;;-5.82;100.00
24440;BME280;12618;54.386;18.394;2022-12-18T01:40:01;101181.37;;;-5.80;100.00
24440;BME280;12618;54.386;18.394;2022-12-18T01:42:32;101178.45;;;-5.78;100.00
24440;BME280;12618;54.386;18.394;2022-12-18T01:47:39;101176.49;;;-5.74;100.00
24440;BME280;12618;54.386;18.394;2022-12-18T01:50:16;101168.00;;;-5.72;100.00
24440;BME280;12618;54.386;18.394;2022-12-18T01:52:45;101175.10;;;-5.66;100.00
24440;BME280;12618;54.386;18.394;2022-12-18T01:55:16;101172.77;;;-5.60;100.00
24440;BME280;12618;54.386;18.394;2022-12-18T01:57:49;101167.00;;;-5.55;100.00
24440;BME280;12618;54.386;18.394;2022-12-18T02:00:20;101165.54;;;-5.48;100.00
24440;BME280;12618;54.386;18.394;2022-12-18T02:02:52;101172.23;;;-5.42;100.00
24440;BME280;12618;54.386;18.394;2022-12-18T02:05:44;101174.43;;;-5.40;100.00
24440;BME280;12618;54.386;18.394;2022-12-18T02:10:29;101178.89;;;-5.36;100.00
24440;BME280;12618;54.386;18.394;2022-12-18T02:18:30;101189.08;;;-5.17;100.00
24440;BME280;12618;54.386;18.394;2022-12-18T02:26:26;101196.80;;;-5.05;100.00
24440;BME280;12618;54.386;18.394;2022-12-18T02:28:59;101192.94;;;-5.05;100.00
24440;BME280;12618;54.386;18.394;2022-12-18T02:31:30;101196.71;;;-5.08;100.00
24440;BME280;12618;54.386;18.394;2022-12-18T02:34:02;101198.91;;;-5.06;100.00
24440;BME280;12618;54.386;18.394;2022-12-18T02:36:33;101198.03;;;-5.07;100.00
24440;BME280;12618;54.386;18.394;2022-12-18T02:39:06;101198.91;;;-5.06;100.00
24440;BME280;12618;54.386;18.394;2022-12-18T02:41:38;101205.47;;;-5.03;100.00
24440;BME280;12618;54.386;18.394;2022-12-18T02:44:13;101202.83;;;-5.05;100.00
24440;BME280;12618;54.386;18.394;2022-12-18T02:46:45;101203.77;;;-5.03;100.00
24440;BME280;12618;54.386;18.394;2022-12-18T02:51:53;101207.70;;;-5.01;100.00
24440;BME280;12618;54.386;18.394;2022-12-18T02:57:14;101220.70;;;-4.98;100.00
24440;BME280;12618;54.386;18.394;2022-12-18T02:59:45;101218.12;;;-4.98;100.00
24440;BME280;12618;54.386;18.394;2022-12-18T03:02:24;101215.95;;;-4.99;100.00
24440;BME280;12618;54.386;18.394;2022-12-18T03:04:57;101229.70;;;-4.98;100.00
24440;BME280;12618;54.386;18.394;2022-12-18T03:09:59;101228.58;;;-4.94;100.00
24440;BME280;12618;54.386;18.394;2022-12-18T03:12:31;101223.84;;;-4.94;100.00
24440;BME280;12618;54.386;18.394;2022-12-18T03:15:04;101231.56;;;-4.94;100.00
24440;BME280;12618;54.386;18.394;2022-12-18T03:17:35;101230.28;;;-4.94;100.00
24440;BME280;12618;54.386;18.394;2022-12-18T03:20:12;101230.28;;;-4.94;100.00
24440;BME280;12618;54.386;18.394;2022-12-18T03:22:40;101232.03;;;-4.93;100.00
24440;BME280;12618;54.386;18.394;2022-12-18T03:25:13;101238.06;;;-4.93;100.00
24440;BME280;12618;54.386;18.394;2022-12-18T03:27:47;101240.70;;;-4.91;100.00
24440;BME280;12618;54.386;18.394;2022-12-18T03:30:19;101239.83;;;-4.92;100.00
24440;BME280;12618;54.386;18.394;2022-12-18T03:33:07;101239.54;;;-4.88;100.00
24440;BME280;12618;54.386;18.394;2022-12-18T03:35:35;101240.83;;;-4.88;100.00
24440;BME280;12618;54.386;18.394;2022-12-18T03:38:06;101241.30;;;-4.87;100.00
24440;BME280;12618;54.386;18.394;2022-12-18T03:43:19;101252.89;;;-4.87;100.00
24440;BME280;12618;54.386;18.394;2022-12-18T03:45:54;101256.69;;;-4.89;100.00
24440;BME280;12618;54.386;18.394;2022-12-18T03:48:33;101254.05;;;-4.90;100.00
24440;BME280;12618;54.386;18.394;2022-12-18T03:51:05;101257.78;;;-4.93;100.00
24440;BME280;12618;54.386;18.394;2022-12-18T03:53:36;101258.13;;;-4.95;100.00
24440;BME280;12618;54.386;18.394;2022-12-18T03:56:05;101264.50;;;-4.97;100.00
24440;BME280;12618;54.386;18.394;2022-12-18T03:58:37;101263.99;;;-4.99;100.00
24440;BME280;12618;54.386;18.394;2022-12-18T04:01:08;101266.09;;;-5.00;100.00
24440;BME280;12618;54.386;18.394;2022-12-18T04:03:40;101269.95;;;-5.00;100.00
24440;BME280;12618;54.386;18.394;2022-12-18T04:06:12;101276.33;;;-5.02;100.00
24440;BME280;12618;54.386;18.394;2022-12-18T04:08:44;101271.11;;;-5.03;100.00
24440;BME280;12618;54.386;18.394;2022-12-18T04:11:15;101269.83;;;-5.03;100.00
24440;BME280;12618;54.386;18.394;2022-12-18T04:13:46;101274.03;;;-5.05;100.00
24440;BME280;12618;54.386;18.394;2022-12-18T04:16:16;101274.84;;;-5.06;100.00
24440;BME280;12618;54.386;18.394;2022-12-18T04:18:46;101271.93;;;-5.04;100.00
24440;BME280;12618;54.386;18.394;2022-12-18T04:21:17;101274.98;;;-5.03;100.00
24440;BME280;12618;54.386;18.394;2022-12-18T04:23:48;101279.65;;;-5.04;100.00
24440;BME280;12618;54.386;18.394;2022-12-18T04:26:18;101280.05;;;-5.05;100.00
24440;BME280;12618;54.386;18.394;2022-12-18T04:28:49;101288.19;;;-5.05;100.00
24440;BME280;12618;54.386;18.394;2022-12-18T04:31:19;101284.64;;;-5.09;100.00
24440;BME280;12618;54.386;18.394;2022-12-18T04:33:53;101291.82;;;-5.11;100.00
24440;BME280;12618;54.386;18.394;2022-12-18T04:36:23;101292.56;;;-5.14;100.00
24440;BME280;12618;54.386;18.394;2022-12-18T04:38:54;101284.30;;;-5.17;100.00
24440;BME280;12618;54.386;18.394;2022-12-18T04:41:24;101286.38;;;-5.19;100.00
24440;BME280;12618;54.386;18.394;2022-12-18T04:43:55;101291.45;;;-5.21;100.00
24440;BME280;12618;54.386;18.394;2022-12-18T04:46:25;101298.63;;;-5.23;100.00
24440;BME280;12618;54.386;18.394;2022-12-18T04:48:56;101307.09;;;-5.26;100.00
24440;BME280;12618;54.386;18.394;2022-12-18T04:51:29;101304.87;;;-5.28;100.00
24440;BME280;12618;54.386;18.394;2022-12-18T04:54:00;101307.75;;;-5.31;100.00
24440;BME280;12618;54.386;18.394;2022-12-18T04:56:31;101317.02;;;-5.35;100.00
24440;BME280;12618;54.386;18.394;2022-12-18T04:59:01;101307.47;;;-5.37;100.00
24440;BME280;12618;54.386;18.394;2022-12-18T05:01:32;101315.94;;;-5.40;100.00
24440;BME280;12618;54.386;18.394;2022-12-18T05:04:05;101309.80;;;-5.43;100.00
24440;BME280;12618;54.386;18.394;2022-12-18T05:06:36;101312.38;;;-5.43;100.00
24440;BME280;12618;54.386;18.394;2022-12-18T05:09:06;101315.76;;;-5.44;100.00
24440;BME280;12618;54.386;18.394;2022-12-18T05:11:37;101318.67;;;-5.46;100.00
24440;BME280;12618;54.386;18.394;2022-12-18T05:14:08;101325.91;;;-5.47;100.00
24440;BME280;12618;54.386;18.394;2022-12-18T05:16:38;101331.80;;;-5.50;100.00
24440;BME280;12618;54.386;18.394;2022-12-18T05:19:08;101330.84;;;-5.52;100.00
24440;BME280;12618;54.386;18.394;2022-12-18T05:21:39;101332.50;;;-5.54;100.00
24440;BME280;12618;54.386;18.394;2022-12-18T05:24:09;101347.94;;;-5.54;100.00
24440;BME280;12618;54.386;18.394;2022-12-18T05:26:40;101353.08;;;-5.54;100.00
24440;BME280;12618;54.386;18.394;2022-12-18T05:29:10;101351.32;;;-5.55;100.00
24440;BME280;12618;54.386;18.394;2022-12-18T05:31:42;101353.89;;;-5.55;100.00
24440;BME280;12618;54.386;18.394;2022-12-18T05:34:12;101351.18;;;-5.58;100.00
24440;BME280;12618;54.386;18.394;2022-12-18T05:36:45;101352.25;;;-5.63;100.00
24440;BME280;12618;54.386;18.394;2022-12-18T05:39:15;101356.27;;;-5.69;100.00
24440;BME280;12618;54.386;18.394;2022-12-18T05:41:46;101356.02;;;-5.75;100.00
24440;BME280;12618;54.386;18.394;2022-12-18T05:44:16;101367.92;;;-5.77;100.00
24440;BME280;12618;54.386;18.394;2022-12-18T05:46:47;101372.51;;;-5.80;100.00
24440;BME280;12618;54.386;18.394;2022-12-18T05:49:17;101366.02;;;-5.81;100.00
24440;BME280;12618;54.386;18.394;2022-12-18T05:51:48;101363.91;;;-5.80;100.00
24440;BME280;12618;54.386;18.394;2022-12-18T05:54:18;101376.37;;;-5.80;100.00
24440;BME280;12618;54.386;18.394;2022-12-18T05:56:49;101367.30;;;-5.81;100.00
24440;BME280;12618;54.386;18.394;2022-12-18T05:59:19;101374.20;;;-5.80;100.00
24440;BME280;12618;54.386;18.394;2022-12-18T06:01:50;101376.77;;;-5.80;100.00
24440;BME280;12618;54.386;18.394;2022-12-18T06:04:20;101374.20;;;-5.80;100.00
24440;BME280;12618;54.386;18.394;2022-12-18T06:06:51;101379.20;;;-5.83;100.00
24440;BME280;12618;54.386;18.394;2022-12-18T06:09:21;101378.28;;;-5.85;100.00
24440;BME280;12618;54.386;18.394;2022-12-18T06:11:52;101378.16;;;-5.89;100.00
24440;BME280;12618;54.386;18.394;2022-12-18T06:14:22;101381.55;;;-5.90;100.00
24440;BME280;12618;54.386;18.394;2022-12-18T06:16:53;101383.97;;;-5.93;100.00
24440;BME280;12618;54.386;18.394;2022-12-18T06:19:23;101387.34;;;-5.94;100.00
24440;BME280;12618;54.386;18.394;2022-12-18T06:21:54;101388.37;;;-6.00;100.00
24440;BME280;12618;54.386;18.394;2022-12-18T06:24:24;101393.84;;;-6.02;100.00
24440;BME280;12618;54.386;18.394;2022-12-18T06:26:55;101394.50;;;-6.06;100.00
24440;BME280;12618;54.386;18.394;2022-12-18T06:29:25;101399.78;;;-6.12;100.00
24440;BME280;12618;54.386;18.394;2022-12-18T06:31:59;101399.55;;;-6.17;100.00
24440;BME280;12618;54.386;18.394;2022-12-18T06:34:29;101404.69;;;-6.17;100.00
24440;BME280;12618;54.386;18.394;2022-12-18T06:37:00;101410.19;;;-6.19;100.00
24440;BME280;12618;54.386;18.394;2022-12-18T06:39:30;101411.88;;;-6.19;100.00
24440;BME280;12618;54.386;18.394;2022-12-18T06:42:01;101417.54;;;-6.17;100.00
24440;BME280;12618;54.386;18.394;2022-12-18T06:44:31;101423.16;;;-6.16;100.00
24440;BME280;12618;54.386;18.394;2022-12-18T06:47:02;101421.39;;;-6.17;100.00
24440;BME280;12618;54.386;18.394;2022-12-18T06:49:33;101426.53;;;-6.17;100.00
24440;BME280;12618;54.386;18.394;2022-12-18T06:52:04;101430.87;;;-6.16;100.00
24440;BME280;12618;54.386;18.394;2022-12-18T06:54:34;101432.48;;;-6.18;100.00
24440;BME280;12618;54.386;18.394;2022-12-18T06:57:05;101434.93;;;-6.21;100.00
24440;BME280;12618;54.386;18.394;2022-12-18T06:59:35;101441.83;;;-6.20;100.00
24440;BME280;12618;54.386;18.394;2022-12-18T07:02:06;101441.20;;;-6.24;100.00
24440;BME280;12618;54.386;18.394;2022-12-18T07:04:36;101446.98;;;-6.28;100.00
24440;BME280;12618;54.386;18.394;2022-12-18T07:07:07;101455.50;;;-6.29;100.00
24440;BME280;12618;54.386;18.394;2022-12-18T07:09:37;101460.20;;;-6.30;100.00
24440;BME280;12618;54.386;18.394;2022-12-18T07:12:08;101458.43;;;-6.31;100.00
24440;BME280;12618;54.386;18.394;2022-12-18T07:14:38;101459.72;;;-6.31;100.00
24440;BME280;12618;54.386;18.394;2022-12-18T07:17:09;101458.95;;;-6.29;100.00
24440;BME280;12618;54.386;18.394;2022-12-18T07:19:39;101461.12;;;-6.28;100.00
24440;BME280;12618;54.386;18.394;2022-12-18T07:22:10;101458.95;;;-6.29;100.00
24440;BME280;12618;54.386;18.394;2022-12-18T07:24:40;101461.12;;;-6.28;100.00
24440;BME280;12618;54.386;18.394;2022-12-18T07:27:11;101457.67;;;-6.29;100.00
24440;BME280;12618;54.386;18.394;2022-12-18T07:29:41;101460.20;;;-6.30;100.00
24440;BME280;12618;54.386;18.394;2022-12-18T07:32:12;101464.97;;;-6.28;100.00
24440;BME280;12618;54.386;18.394;2022-12-18T07:34:42;101462.00;;;-6.28;100.00
24440;BME280;12618;54.386;18.394;2022-12-18T07:37:13;101467.37;;;-6.23;100.00
24440;BME280;12618;54.386;18.394;2022-12-18T07:39:43;101475.97;;;-6.22;100.00
24440;BME280;12618;54.386;18.394;2022-12-18T07:42:14;101491.46;;;-6.21;100.00
24440;BME280;12618;54.386;18.394;2022-12-18T07:45:03;101504.78;;;-6.20;100.00
24440;BME280;12618;54.386;18.394;2022-12-18T07:47:34;101504.91;;;-6.17;100.00
24440;BME280;12618;54.386;18.394;2022-12-18T07:50:05;101509.40;;;-6.13;100.00
24440;BME280;12618;54.386;18.394;2022-12-18T07:52:36;101493.66;;;-6.11;100.00
24440;BME280;12618;54.386;18.394;2022-12-18T07:55:07;101485.63;;;-6.09;100.00
24440;BME280;12618;54.386;18.394;2022-12-18T07:57:37;101493.86;;;-6.06;100.00
24440;BME280;12618;54.386;18.394;2022-12-18T08:00:08;101496.42;;;-6.06;100.00
24440;BME280;12618;54.386;18.394;2022-12-18T08:02:39;101490.00;;;-6.06;100.00
24440;BME280;12618;54.386;18.394;2022-12-18T08:05:09;101491.64;;;-6.08;100.00
24440;BME280;12618;54.386;18.394;2022-12-18T08:07:40;101504.53;;;-6.07;100.00
24440;BME280;12618;54.386;18.394;2022-12-18T08:10:10;101505.02;;;-6.06;100.00
24440;BME280;12618;54.386;18.394;2022-12-18T08:12:41;101505.98;;;-6.04;100.00
24440;BME280;12618;54.386;18.394;2022-12-18T08:15:11;101499.22;;;-6.02;100.00
24440;BME280;12618;54.386;18.394;2022-12-18T08:17:41;101506.33;;;-5.96;100.00
24440;BME280;12618;54.386;18.394;2022-12-18T08:20:12;101506.00;;;-5.94;100.00
24440;BME280;12618;54.386;18.394;2022-12-18T08:22:44;101509.61;;;-5.91;100.00
24440;BME280;12618;54.386;18.394;2022-12-18T08:25:15;101498.16;;;-5.88;100.00
24440;BME280;12618;54.386;18.394;2022-12-18T08:27:46;101500.44;;;-5.84;100.00
24440;BME280;12618;54.386;18.394;2022-12-18T08:30:16;101502.77;;;-5.80;100.00
24440;BME280;12618;54.386;18.394;2022-12-18T08:32:47;101500.94;;;-5.73;100.00
24440;BME280;12618;54.386;18.394;2022-12-18T08:35:19;101495.77;;;-5.65;100.00
24440;BME280;12618;54.386;18.394;2022-12-18T08:37:49;101502.86;;;-5.60;100.00
24440;BME280;12618;54.386;18.394;2022-12-18T08:40:20;101502.20;;;-5.56;100.00
24440;BME280;12618;54.386;18.394;2022-12-18T08:42:51;101499.82;;;-5.51;100.00
24440;BME280;12618;54.386;18.394;2022-12-18T08:45:39;101499.48;;;-5.49;100.00
24440;BME280;12618;54.386;18.394;2022-12-18T08:48:10;101505.73;;;-5.44;100.00
24440;BME280;12618;54.386;18.394;2022-12-18T08:50:42;101514.86;;;-5.41;100.00
24440;BME280;12618;54.386;18.394;2022-12-18T08:53:12;101515.48;;;-5.37;100.00
24440;BME280;12618;54.386;18.394;2022-12-18T08:55:43;101512.10;;;-5.36;100.00
24440;BME280;12618;54.386;18.394;2022-12-18T08:58:13;101509.78;;;-5.30;100.00
24440;BME280;12618;54.386;18.394;2022-12-18T09:00:44;101511.69;;;-5.26;100.00
24440;BME280;12618;54.386;18.394;2022-12-18T09:03:15;101512.31;;;-5.22;100.00
24440;BME280;12618;54.386;18.394;2022-12-18T09:05:46;101515.95;;;-5.17;100.00
24440;BME280;12618;54.386;18.394;2022-12-18T09:08:17;101512.38;;;-5.10;100.00
24440;BME280;12618;54.386;18.394;2022-12-18T09:10:48;101517.20;;;-5.08;100.00
24440;BME280;12618;54.386;18.394;2022-12-18T09:13:19;101521.17;;;-5.05;100.00
24440;BME280;12618;54.386;18.394;2022-12-18T09:15:51;101512.78;;;-5.01;100.00
24440;BME280;12618;54.386;18.394;2022-12-18T09:18:22;101514.69;;;-4.97;100.00
24440;BME280;12618;54.386;18.394;2022-12-18T09:20:54;101516.96;;;-4.94;100.00
24440;BME280;12618;54.386;18.394;2022-12-18T09:23:25;101520.16;;;-4.90;100.00
24440;BME280;12618;54.386;18.394;2022-12-18T09:25:58;101524.67;;;-4.84;100.00
24440;BME280;12618;54.386;18.394;2022-12-18T09:28:29;101529.15;;;-4.80;100.00
24440;BME280;12618;54.386;18.394;2022-12-18T09:31:03;101533.27;;;-4.74;100.00
24440;BME280;12618;54.386;18.394;2022-12-18T09:33:37;101537.73;;;-4.70;100.00
24440;BME280;12618;54.386;18.394;2022-12-18T09:36:07;101537.47;;;-4.66;100.00
24440;BME280;12618;54.386;18.394;2022-12-18T09:38:38;101532.83;;;-4.64;100.00
24440;BME280;12618;54.386;18.394;2022-12-18T09:43:54;101526.67;;;-4.58;100.00
24440;BME280;12618;54.386;18.394;2022-12-18T09:46:31;101528.98;;;-4.54;100.00
24440;BME280;12618;54.386;18.394;2022-12-18T09:48:59;101530.44;;;-4.50;100.00
24440;BME280;12618;54.386;18.394;2022-12-18T09:51:36;101534.44;;;-4.47;100.00
24440;BME280;12618;54.386;18.394;2022-12-18T09:54:05;101544.52;;;-4.42;100.00
24440;BME280;12618;54.386;18.394;2022-12-18T09:56:36;101538.20;;;-4.38;100.00
24440;BME280;12618;54.386;18.394;2022-12-18T09:59:14;101541.26;;;-4.37;100.00
24440;BME280;12618;54.386;18.394;2022-12-18T10:01:40;101536.72;;;-4.33;100.00
24440;BME280;12618;54.386;18.394;2022-12-18T10:04:11;101520.53;;;-4.29;100.00
24440;BME280;12618;54.386;18.394;2022-12-18T10:09:36;101522.63;;;-4.21;100.00
24440;BME280;12618;54.386;18.394;2022-12-18T10:12:20;101530.53;;;-4.16;100.00
24440;BME280;12618;54.386;18.394;2022-12-18T10:17:48;101533.00;;;-4.08;100.00
24440;BME280;12618;54.386;18.394;2022-12-18T10:20:27;101542.16;;;-4.05;100.00
24440;BME280;12618;54.386;18.394;2022-12-18T10:25:59;101539.64;;;-4.04;100.00
24440;BME280;12618;54.386;18.394;2022-12-18T10:28:19;101531.09;;;-4.02;100.00
24440;BME280;12618;54.386;18.394;2022-12-18T10:30:50;101530.28;;;-4.01;100.00
24440;BME280;12618;54.386;18.394;2022-12-18T10:33:22;101540.31;;;-3.98;100.00
24440;BME280;12618;54.386;18.394;2022-12-18T10:35:53;101546.45;;;-3.94;100.00
24440;BME280;12618;54.386;18.394;2022-12-18T10:38:26;101552.63;;;-3.91;100.00
24440;BME280;12618;54.386;18.394;2022-12-18T10:40:58;101538.09;;;-3.89;100.00
24440;BME280;12618;54.386;18.394;2022-12-18T10:43:32;101541.72;;;-3.84;100.00
24440;BME280;12618;54.386;18.394;2022-12-18T10:51:11;101534.45;;;-3.83;100.00
24440;BME280;12618;54.386;18.394;2022-12-18T10:53:44;101535.40;;;-3.81;100.00
24440;BME280;12618;54.386;18.394;2022-12-18T10:56:16;101539.68;;;-3.81;100.00
24440;BME280;12618;54.386;18.394;2022-12-18T10:58:59;101540.22;;;-3.79;100.00
24440;BME280;12618;54.386;18.394;2022-12-18T11:04:19;101550.19;;;-3.77;100.00
24440;BME280;12618;54.386;18.394;2022-12-18T11:06:54;101548.93;;;-3.75;100.00
24440;BME280;12618;54.386;18.394;2022-12-18T11:09:29;101548.52;;;-3.75;100.00
24440;BME280;12618;54.386;18.394;2022-12-18T11:12:00;101546.89;;;-3.73;100.00
24440;BME280;12618;54.386;18.394;2022-12-18T11:14:42;101545.25;;;-3.71;100.00
24440;BME280;12618;54.386;18.394;2022-12-18T11:17:16;101543.62;;;-3.69;100.00
24440;BME280;12618;54.386;18.394;2022-12-18T11:19:39;101547.14;;;-3.67;100.00
24440;BME280;12618;54.386;18.394;2022-12-18T11:22:18;101550.30;;;-3.62;100.00
24440;BME280;12618;54.386;18.394;2022-12-18T11:24:52;101543.15;;;-3.58;100.00
24440;BME280;12618;54.386;18.394;2022-12-18T11:27:23;101533.77;;;-3.56;100.00
24440;BME280;12618;54.386;18.394;2022-12-18T11:30:07;101537.52;;;-3.48;100.00
24440;BME280;12618;54.386;18.394;2022-12-18T11:32:35;101535.15;;;-3.42;100.00
24440;BME280;12618;54.386;18.394;2022-12-18T11:35:12;101534.92;;;-3.37;100.00
24440;BME280;12618;54.386;18.394;2022-12-18T11:37:43;101519.22;;;-3.43;100.00
24440;BME280;12618;54.386;18.394;2022-12-18T11:40:19;101552.86;;;-3.29;100.00
24440;BME280;12618;54.386;18.394;2022-12-18T11:42:54;101558.16;;;-3.26;100.00
24440;BME280;12618;54.386;18.394;2022-12-18T11:48:00;101571.40;;;-3.17;100.00
24440;BME280;12618;54.386;18.394;2022-12-18T11:50:39;101578.45;;;-3.13;100.00
24440;BME280;12618;54.386;18.394;2022-12-18T11:53:09;101576.34;;;-3.12;100.00
24440;BME280;12618;54.386;18.394;2022-12-18T11:55:49;101588.99;;;-3.07;100.00
24440;BME280;12618;54.386;18.394;2022-12-18T12:04:02;101594.73;;;-2.91;100.00
24440;BME280;12618;54.386;18.394;2022-12-18T12:14:20;101582.82;;;-2.75;100.00
24440;BME280;12618;54.386;18.394;2022-12-18T12:16:51;101578.23;;;-2.71;100.00
24440;BME280;12618;54.386;18.394;2022-12-18T12:22:06;101578.23;;;-2.71;100.00
24440;BME280;12618;54.386;18.394;2022-12-18T12:24:39;101574.77;;;-2.72;100.00
24440;BME280;12618;54.386;18.394;2022-12-18T12:27:25;101569.66;;;-2.70;100.00
24440;BME280;12618;54.386;18.394;2022-12-18T12:30:00;101575.50;;;-2.63;100.00
24440;BME280;12618;54.386;18.394;2022-12-18T12:32:40;101567.67;;;-2.15;100.00
24440;BME280;12618;54.386;18.394;2022-12-18T12:37:54;101572.46;;;-1.33;100.00
24440;BME280;12618;54.386;18.394;2022-12-18T12:40:23;101568.80;;;-1.10;100.00
24440;BME280;12618;54.386;18.394;2022-12-18T12:42:55;101561.34;;;-0.99;100.00
24440;BME280;12618;54.386;18.394;2022-12-18T12:45:52;101558.06;;;-0.93;100.00
24440;BME280;12618;54.386;18.394;2022-12-18T12:50:59;101554.09;;;-0.81;100.00
24440;BME280;12618;54.386;18.394;2022-12-18T12:53:32;101558.22;;;-0.87;100.00
24440;BME280;12618;54.386;18.394;2022-12-18T12:56:03;101558.11;;;-0.92;100.00
24440;BME280;12618;54.386;18.394;2022-12-18T13:01:32;101556.27;;;-1.10;100.00
24440;BME280;12618;54.386;18.394;2022-12-18T13:09:17;101556.15;;;-1.98;100.00
24440;BME280;12618;54.386;18.394;2022-12-18T13:11:47;101568.61;;;-2.13;100.00
24440;BME280;12618;54.386;18.394;2022-12-18T13:14:41;101570.50;;;-2.21;100.00
24440;BME280;12618;54.386;18.394;2022-12-18T13:20:11;101567.17;;;-2.43;100.00
24440;BME280;12618;54.386;18.394;2022-12-18T13:22:45;101568.03;;;-2.55;100.00
24440;BME280;12618;54.386;18.394;2022-12-18T13:25:33;101560.80;;;-2.66;100.00
24440;BME280;12618;54.386;18.394;2022-12-18T13:28:08;101565.20;;;-2.74;100.00
24440;BME280;12618;54.386;18.394;2022-12-18T13:30:44;101561.00;;;-2.83;100.00
24440;BME280;12618;54.386;18.394;2022-12-18T13:40:55;101571.05;;;-3.15;100.00
24440;BME280;12618;54.386;18.394;2022-12-18T13:43:27;101565.61;;;-3.22;100.00
24440;BME280;12618;54.386;18.394;2022-12-18T13:48:36;101576.77;;;-3.35;100.00
24440;BME280;12618;54.386;18.394;2022-12-18T13:51:08;101575.60;;;-3.43;100.00
24440;BME280;12618;54.386;18.394;2022-12-18T13:53:46;101571.60;;;-3.46;100.00
24440;BME280;12618;54.386;18.394;2022-12-18T13:56:21;101575.75;;;-3.49;100.00
24440;BME280;12618;54.386;18.394;2022-12-18T14:01:35;101580.23;;;-3.56;100.00
24440;BME280;12618;54.386;18.394;2022-12-18T14:04:22;101574.40;;;-3.62;100.00
24440;BME280;12618;54.386;18.394;2022-12-18T14:07:35;101572.47;;;-3.68;100.00
24440;BME280;12618;54.386;18.394;2022-12-18T14:09:34;101580.09;;;-3.71;100.00
24440;BME280;12618;54.386;18.394;2022-12-18T14:12:01;101585.49;;;-3.76;100.00
24440;BME280;12618;54.386;18.394;2022-12-18T14:14:50;101575.05;;;-3.79;100.00
24440;BME280;12618;54.386;18.394;2022-12-18T14:17:22;101569.63;;;-3.85;100.00
24440;BME280;12618;54.386;18.394;2022-12-18T14:19:53;101575.50;;;-3.89;100.00
24440;BME280;12618;54.386;18.394;2022-12-18T14:22:24;101565.39;;;-3.94;100.00
24440;BME280;12618;54.386;18.394;2022-12-18T14:27:46;101562.04;;;-4.02;100.00
24440;BME280;12618;54.386;18.394;2022-12-18T14:33:01;101558.55;;;-4.14;100.00
24440;BME280;12618;54.386;18.394;2022-12-18T14:35:33;101553.50;;;-4.22;100.00